Aviation Digital Data Service (ADDS)

Output produced by METARs form (1100 UTC 16 February 2019)
found at http://www.aviationweather.gov/metar/data/
 
KPAE 161053Z 00000KT 10SM OVC060 03/01 A2974 RMK AO2 SLP073 T00280011
KPAE 160548Z 1606/1706 08006KT P6SM SCT050 
     FM161800 19004KT P6SM VCSH OVC025 
     FM162100 20007KT P6SM VCSH OVC025
       
KAWO 161056Z AUTO 00000KT 10SM OVC065 M01/M02 A2976 RMK AO2 SLP083 T10111017 FZRANO
KAWO 161017Z AUTO 00000KT 4SM BR FEW049 OVC065 M02/M02 A2975 RMK AO2 FZRANO
KAWO 161009Z AUTO 00000KT 1 1/4SM BR FEW049 OVC065 M02/M02 A2975 RMK AO2 VIS 3/4V5 FZRANO
KBFI 161053Z 00000KT 10SM OVC065 02/01 A2975 RMK AO2 SLP075 T00220006
KBFI 160548Z 1606/1706 18006KT P6SM BKN060 BKN100 
     FM160900 VRB04KT P6SM OVC050 
     FM161500 15003KT P6SM OVC030 
     FM162100 17005KT P6SM VCSH OVC030
       
KRNT 161053Z AUTO 10003KT 10SM OVC070 02/01 A2975 RMK AO2 SLP080 T00170006
KSEA 161053Z 00000KT 10SM BKN060 BKN180 03/01 A2974 RMK AO2 SLP078 T00280011
KSEA 160857Z 1609/1712 07004KT P6SM VCSH BKN050 BKN080 
     FM161700 22004KT P6SM -RA BKN025 OVC035 
     FM162100 20006KT P6SM -RA OVC020 
     FM170200 21004KT P6SM -SHRA OVC020 
     FM170600 VRB04KT P6SM VCSH BKN020 OVC030